Aviation Digital Data Service (ADDS)

Output produced by METARs form (1352 UTC 01 August 2014)
found at http://www.aviationweather.gov/adds/metars/
 
KWWD 011335Z AUTO 24006KT 10SM CLR 24/18 A3020 RMK AO1